createdAt,value
2022-11-19T00:01:17.870Z,5.70
2022-11-19T00:03:49.850Z,7.07
2022-11-19T00:06:24.113Z,5.18
2022-11-19T00:08:51.143Z,4.13
2022-11-19T00:11:41.559Z,4.18
2022-11-19T00:14:10.770Z,4.60
2022-11-19T00:16:37.566Z,4.47
2022-11-19T00:19:05.023Z,6.15
2022-11-19T00:21:31.955Z,4.78
2022-11-19T00:23:59.772Z,4.63
2022-11-19T00:26:26.966Z,3.70
2022-11-19T00:28:54.904Z,5.87
2022-11-19T00:31:22.067Z,5.90
2022-11-19T00:33:54.232Z,3.42
2022-11-19T00:36:21.920Z,3.70
2022-11-19T00:38:48.646Z,5.35
2022-11-19T00:41:15.481Z,4.20
2022-11-19T00:43:48.511Z,4.32
2022-11-19T00:46:18.208Z,3.90
2022-11-19T00:48:46.363Z,5.07
2022-11-19T00:51:13.782Z,6.60
2022-11-19T00:53:40.628Z,3.97
2022-11-19T00:56:13.017Z,5.72
2022-11-19T00:58:40.173Z,4.40
2022-11-19T01:01:08.290Z,3.33
2022-11-19T01:03:35.153Z,3.00
2022-11-19T01:06:02.332Z,4.20
2022-11-19T01:08:29.351Z,5.70
2022-11-19T01:10:56.306Z,6.38
2022-11-19T01:13:35.136Z,4.35
2022-11-19T01:16:08.794Z,4.55
2022-11-19T01:18:36.798Z,4.40
2022-11-19T01:21:04.930Z,4.47
2022-11-19T01:23:32.005Z,5.10
2022-11-19T01:25:58.911Z,5.78
2022-11-19T01:28:25.723Z,3.55
2022-11-19T01:30:53.166Z,4.83
2022-11-19T01:33:20.101Z,3.80
2022-11-19T01:35:57.321Z,3.60
2022-11-19T01:38:24.333Z,4.78
2022-11-19T01:40:51.085Z,4.18
2022-11-19T01:43:17.822Z,4.30
2022-11-19T01:45:49.956Z,3.53
2022-11-19T01:48:27.224Z,3.45
2022-11-19T01:51:02.319Z,3.22
2022-11-19T01:53:35.373Z,6.63
2022-11-19T01:56:05.183Z,4.60
2022-11-19T01:58:38.040Z,5.40
2022-11-19T02:01:06.164Z,7.10
2022-11-19T02:03:33.261Z,6.80
2022-11-19T02:06:02.444Z,4.15
2022-11-19T02:08:44.466Z,4.83
2022-11-19T02:11:30.567Z,4.55
2022-11-19T02:14:25.950Z,2.80
2022-11-19T02:17:30.316Z,11.32
2022-11-19T02:20:11.874Z,15.45
2022-11-19T02:23:06.437Z,19.67
2022-11-19T02:25:39.315Z,19.67
2022-11-19T02:28:41.391Z,27.98
2022-11-19T02:31:22.562Z,13.85
2022-11-19T02:33:57.938Z,21.40
2022-11-19T02:36:31.153Z,22.23
2022-11-19T02:39:15.333Z,17.20
2022-11-19T02:41:50.808Z,35.25
2022-11-19T02:45:02.500Z,27.30
2022-11-19T02:47:37.211Z,30.15
2022-11-19T02:50:11.072Z,35.10
2022-11-19T02:52:44.100Z,25.60
2022-11-19T02:55:19.299Z,23.98
2022-11-19T02:58:06.398Z,37.63
2022-11-19T03:01:00.378Z,24.35
2022-11-19T03:03:46.203Z,30.87
2022-11-19T03:06:17.942Z,40.08
2022-11-19T03:08:45.855Z,40.38
2022-11-19T03:11:23.110Z,39.10
2022-11-19T03:14:22.527Z,35.47
2022-11-19T03:17:01.033Z,23.33
2022-11-19T03:19:37.574Z,43.00
2022-11-19T03:22:12.789Z,31.98
2022-11-19T03:24:49.494Z,38.20
2022-11-19T03:27:38.290Z,36.47
2022-11-19T03:30:06.807Z,27.80
2022-11-19T03:32:40.673Z,44.75
2022-11-19T03:35:22.697Z,32.47
2022-11-19T03:37:53.766Z,43.13
2022-11-19T03:40:22.362Z,45.58
2022-11-19T03:42:53.164Z,44.23
2022-11-19T03:45:24.754Z,53.00
2022-11-19T03:47:52.724Z,41.75
2022-11-19T03:50:29.837Z,46.22
2022-11-19T03:53:03.904Z,46.80
2022-11-19T03:55:55.257Z,49.77
2022-11-19T03:58:24.886Z,39.30
2022-11-19T04:00:52.244Z,30.83
2022-11-19T04:03:19.798Z,28.02
2022-11-19T04:05:46.636Z,29.33
2022-11-19T04:08:13.507Z,35.13
2022-11-19T04:10:40.196Z,28.80
2022-11-19T04:13:06.910Z,29.48
2022-11-19T04:15:33.642Z,20.70
2022-11-19T04:18:00.367Z,27.65
2022-11-19T04:20:27.128Z,30.30
2022-11-19T04:22:53.862Z,33.15
2022-11-19T04:25:20.621Z,24.90
2022-11-19T04:27:51.626Z,33.03
2022-11-19T04:30:18.486Z,33.40
2022-11-19T04:32:45.411Z,33.30
2022-11-19T04:35:14.030Z,36.78
2022-11-19T04:37:40.752Z,25.10
2022-11-19T04:40:08.236Z,29.58
2022-11-19T04:42:34.945Z,23.88
2022-11-19T04:45:01.660Z,28.77
2022-11-19T04:47:28.372Z,18.02
2022-11-19T04:49:55.163Z,28.30
2022-11-19T04:52:21.897Z,17.70
2022-11-19T04:54:48.686Z,32.45
2022-11-19T04:57:15.362Z,28.80
2022-11-19T04:59:42.139Z,26.60
2022-11-19T05:02:08.900Z,21.75
2022-11-19T05:04:35.637Z,26.30
2022-11-19T05:07:02.558Z,35.38
2022-11-19T05:09:29.296Z,21.70
2022-11-19T05:11:56.021Z,21.40
2022-11-19T05:14:25.933Z,24.05
2022-11-19T05:16:55.632Z,26.73
2022-11-19T05:19:22.360Z,28.17
2022-11-19T05:21:49.131Z,27.60
2022-11-19T05:24:15.872Z,22.45
2022-11-19T05:26:42.589Z,26.13
2022-11-19T05:29:09.355Z,38.40
2022-11-19T05:31:36.140Z,40.25
2022-11-19T05:34:02.937Z,35.43
2022-11-19T05:36:29.687Z,29.67
2022-11-19T05:38:56.396Z,24.63
2022-11-19T05:41:23.270Z,44.15
2022-11-19T05:43:50.007Z,46.80
2022-11-19T05:46:16.746Z,55.40
2022-11-19T05:48:43.488Z,43.92
2022-11-19T05:51:16.212Z,32.53
2022-11-19T05:53:43.616Z,40.95
2022-11-19T05:56:10.591Z,33.45
2022-11-19T05:58:37.457Z,36.37
2022-11-19T06:01:04.751Z,39.72
2022-11-19T06:03:32.348Z,39.28
2022-11-19T06:05:59.108Z,39.00
2022-11-19T06:08:25.955Z,32.20
2022-11-19T06:10:52.772Z,25.23
2022-11-19T06:13:20.008Z,28.58
2022-11-19T06:15:47.026Z,20.60
2022-11-19T06:18:13.864Z,34.05
2022-11-19T06:20:40.602Z,36.50
2022-11-19T06:23:08.074Z,38.27
2022-11-19T06:25:34.831Z,43.85
2022-11-19T06:28:01.595Z,47.05
2022-11-19T06:30:28.367Z,44.20
2022-11-19T06:32:55.231Z,40.20
2022-11-19T06:35:22.004Z,34.83
2022-11-19T06:37:49.355Z,44.65
2022-11-19T06:40:16.068Z,35.28
2022-11-19T06:42:45.192Z,37.47
2022-11-19T06:45:14.691Z,41.13
2022-11-19T06:47:42.023Z,37.93
2022-11-19T06:50:10.699Z,36.05
2022-11-19T06:52:37.782Z,47.45
2022-11-19T06:55:04.884Z,38.15
2022-11-19T06:57:31.687Z,34.00
2022-11-19T06:59:58.415Z,36.57
2022-11-19T07:02:25.146Z,40.30
2022-11-19T07:04:51.912Z,16.90
2022-11-19T07:07:18.696Z,25.95
2022-11-19T07:09:45.438Z,35.72
2022-11-19T07:12:12.148Z,32.23
2022-11-19T07:14:38.839Z,38.13
2022-11-19T07:17:06.199Z,31.60
2022-11-19T07:19:32.967Z,41.45
2022-11-19T07:21:59.835Z,44.00
2022-11-19T07:24:26.832Z,28.57
2022-11-19T07:26:55.252Z,36.00
2022-11-19T07:29:22.515Z,31.50
2022-11-19T07:31:50.695Z,29.42
2022-11-19T07:34:18.096Z,30.98
2022-11-19T07:36:45.482Z,41.33
2022-11-19T07:39:12.540Z,45.17
2022-11-19T07:41:58.251Z,34.47
2022-11-19T07:44:25.082Z,31.83
2022-11-19T07:46:51.843Z,43.40
2022-11-19T07:49:19.761Z,53.40
2022-11-19T07:51:46.743Z,45.58
2022-11-19T07:54:14.323Z,40.83
2022-11-19T07:56:41.428Z,49.70
2022-11-19T07:59:08.474Z,46.38
2022-11-19T08:01:35.395Z,44.63
2022-11-19T08:04:03.000Z,33.53
2022-11-19T08:06:30.198Z,38.95
2022-11-19T08:08:57.566Z,45.42
2022-11-19T08:11:24.997Z,26.05
2022-11-19T08:13:52.481Z,50.70
2022-11-19T08:16:38.466Z,42.72
2022-11-19T08:19:10.257Z,46.03
2022-11-19T08:21:41.192Z,28.23
2022-11-19T08:24:09.753Z,41.63
2022-11-19T08:26:37.684Z,32.20
2022-11-19T08:29:05.825Z,30.35
2022-11-19T08:31:32.844Z,32.40
2022-11-19T08:34:02.052Z,37.50
2022-11-19T08:36:28.850Z,49.70
2022-11-19T08:39:00.514Z,33.93
2022-11-19T08:41:45.743Z,33.75
2022-11-19T08:44:13.188Z,33.13
2022-11-19T08:46:40.663Z,35.95
2022-11-19T08:49:07.884Z,50.28
2022-11-19T08:51:34.698Z,48.43
2022-11-19T08:54:01.582Z,45.30
2022-11-19T08:56:28.393Z,43.40
2022-11-19T08:58:59.862Z,47.20
2022-11-19T09:01:29.263Z,37.60
2022-11-19T09:03:56.027Z,27.90
2022-11-19T09:06:23.405Z,44.65
2022-11-19T09:08:50.095Z,53.95
2022-11-19T09:11:19.925Z,31.75
2022-11-19T09:13:46.721Z,50.35
2022-11-19T09:16:14.195Z,37.63
2022-11-19T09:18:42.336Z,51.72
2022-11-19T09:21:11.026Z,42.28
2022-11-19T09:23:38.267Z,33.70
2022-11-19T09:26:08.582Z,37.90
2022-11-19T09:28:36.081Z,39.70
2022-11-19T09:31:05.314Z,45.28
2022-11-19T09:33:34.570Z,34.17
2022-11-19T09:36:01.722Z,35.25
2022-11-19T09:38:31.442Z,43.83
2022-11-19T09:41:11.411Z,42.07
2022-11-19T09:43:53.211Z,48.38
2022-11-19T09:47:04.106Z,45.65
2022-11-19T09:49:39.699Z,32.75
2022-11-19T09:52:10.577Z,35.70
2022-11-19T09:54:41.316Z,31.20
2022-11-19T09:57:13.687Z,39.95
2022-11-19T09:59:41.366Z,36.78
2022-11-19T10:02:20.174Z,37.30
2022-11-19T10:04:49.289Z,48.00
2022-11-19T10:07:31.149Z,26.27
2022-11-19T10:10:07.753Z,45.85
2022-11-19T10:12:56.425Z,37.03
2022-11-19T10:15:38.141Z,37.17
2022-11-19T10:18:45.024Z,37.53
2022-11-19T10:21:22.260Z,42.20
2022-11-19T10:24:00.754Z,34.75
2022-11-19T10:26:35.113Z,38.42
2022-11-19T10:29:11.030Z,26.23
2022-11-19T10:31:43.807Z,32.30
2022-11-19T10:34:25.572Z,27.70
2022-11-19T10:37:15.117Z,35.72
2022-11-19T10:39:47.998Z,34.70
2022-11-19T10:42:26.963Z,22.63
2022-11-19T10:45:10.060Z,42.08
2022-11-19T10:48:09.345Z,33.97
2022-11-19T10:50:36.625Z,43.67
2022-11-19T10:53:18.115Z,35.95
2022-11-19T10:55:54.928Z,33.88
2022-11-19T10:58:28.748Z,38.22
2022-11-19T11:00:58.096Z,35.03
2022-11-19T11:03:31.567Z,27.20
2022-11-19T11:06:06.260Z,38.05
2022-11-19T11:08:34.067Z,20.00
2022-11-19T11:11:01.453Z,43.63
2022-11-19T11:13:54.529Z,28.43
2022-11-19T11:16:25.316Z,21.67
2022-11-19T11:18:54.574Z,45.00
2022-11-19T11:21:29.827Z,32.90
2022-11-19T11:23:57.016Z,38.45
2022-11-19T11:26:26.473Z,44.77
2022-11-19T11:29:05.235Z,29.88
2022-11-19T11:31:33.456Z,23.00
2022-11-19T11:34:02.281Z,32.97
2022-11-19T11:36:32.036Z,39.47
2022-11-19T11:39:01.457Z,43.70
2022-11-19T11:44:33.545Z,41.55
2022-11-19T11:47:12.355Z,27.65
2022-11-19T11:49:42.643Z,42.65
2022-11-19T11:52:09.524Z,22.30
2022-11-19T11:54:38.090Z,31.65
2022-11-19T11:57:26.211Z,32.67
2022-11-19T11:59:53.439Z,34.15
2022-11-19T12:02:30.629Z,38.60
2022-11-19T12:05:16.760Z,36.10
2022-11-19T12:07:52.274Z,39.15
2022-11-19T12:10:21.953Z,31.55
2022-11-19T12:13:12.074Z,33.85
2022-11-19T12:15:54.402Z,36.90
2022-11-19T12:18:42.703Z,21.67
2022-11-19T12:21:12.194Z,22.15
2022-11-19T12:23:51.220Z,40.90
2022-11-19T12:26:31.308Z,39.53
2022-11-19T12:29:19.495Z,14.30
2022-11-19T12:32:20.925Z,22.87
2022-11-19T12:35:00.030Z,29.85
2022-11-19T12:37:37.001Z,30.67
2022-11-19T12:40:32.352Z,42.00
2022-11-19T12:43:35.620Z,33.92
2022-11-19T12:46:23.864Z,31.23
2022-11-19T12:49:16.323Z,21.20
2022-11-19T12:51:58.566Z,38.33
2022-11-19T12:54:41.418Z,38.28
2022-11-19T12:57:08.083Z,26.58
2022-11-19T12:59:52.610Z,33.53
2022-11-19T13:02:33.877Z,39.70
2022-11-19T13:05:17.012Z,38.97
2022-11-19T13:07:51.064Z,39.33
2022-11-19T13:10:49.323Z,38.58
2022-11-19T13:13:25.334Z,27.67
2022-11-19T13:16:02.830Z,37.00
2022-11-19T13:18:32.567Z,38.13
2022-11-19T13:21:05.196Z,29.60
2022-11-19T13:23:41.621Z,33.35
2022-11-19T13:26:13.641Z,30.83
2022-11-19T13:28:54.823Z,25.48
2022-11-19T13:31:36.810Z,20.15
2022-11-19T13:34:17.198Z,39.70
2022-11-19T13:36:54.704Z,31.98
2022-11-19T13:39:26.594Z,27.93
2022-11-19T13:42:14.579Z,29.27
2022-11-19T13:44:41.713Z,36.88
2022-11-19T13:47:25.474Z,43.78
2022-11-19T13:50:01.008Z,26.52
2022-11-19T13:52:34.143Z,24.00
2022-11-19T13:55:01.408Z,29.58
2022-11-19T13:57:42.964Z,20.08
2022-11-19T14:00:23.257Z,38.47
2022-11-19T14:03:21.001Z,38.53
2022-11-19T14:06:05.734Z,33.57
2022-11-19T14:08:57.544Z,27.60
2022-11-19T14:11:42.746Z,20.58
2022-11-19T14:14:35.031Z,25.90
2022-11-19T14:17:49.755Z,34.22
2022-11-19T14:20:52.890Z,27.57
2022-11-19T14:24:06.252Z,17.02
2022-11-19T14:26:42.276Z,22.20
2022-11-19T14:29:18.536Z,25.08
2022-11-19T14:32:00.741Z,24.30
2022-11-19T14:34:30.050Z,25.97
2022-11-19T14:36:59.509Z,21.83
2022-11-19T14:39:32.647Z,34.53
2022-11-19T14:42:19.924Z,19.88
2022-11-19T14:45:06.870Z,34.88
2022-11-19T14:47:37.762Z,25.50
2022-11-19T14:50:26.367Z,25.65
2022-11-19T14:52:56.096Z,27.02
2022-11-19T14:55:25.607Z,25.38
2022-11-19T14:58:02.423Z,42.08
2022-11-19T15:00:40.714Z,43.17
2022-11-19T15:03:15.034Z,46.75
2022-11-19T15:05:45.191Z,33.53
2022-11-19T15:08:18.030Z,33.88
2022-11-19T15:11:09.986Z,38.38
2022-11-19T15:13:45.006Z,42.33
2022-11-19T15:16:24.535Z,29.63
2022-11-19T15:19:10.870Z,22.23
2022-11-19T15:22:11.436Z,39.75
2022-11-19T15:24:38.162Z,39.65
2022-11-19T15:27:19.959Z,41.90
2022-11-19T15:30:03.085Z,36.63
2022-11-19T15:32:47.682Z,38.72
2022-11-19T15:35:39.429Z,24.45
2022-11-19T15:38:24.869Z,53.83
2022-11-19T15:40:56.093Z,20.33
2022-11-19T15:43:34.550Z,40.13
2022-11-19T15:46:07.246Z,46.00
2022-11-19T15:48:58.774Z,50.85
2022-11-19T15:51:26.814Z,46.05
2022-11-19T15:53:59.556Z,52.33
2022-11-19T15:56:31.460Z,42.53
2022-11-19T15:58:59.531Z,37.40
2022-11-19T16:01:26.680Z,40.47
2022-11-19T16:03:53.958Z,43.85
2022-11-19T16:06:29.259Z,52.53
2022-11-19T16:08:57.831Z,40.70
2022-11-19T16:11:46.412Z,20.17
2022-11-19T16:14:41.831Z,45.28
2022-11-19T16:17:35.803Z,33.08
2022-11-19T16:20:11.235Z,28.90
2022-11-19T16:22:50.295Z,37.08
2022-11-19T16:25:42.048Z,27.52
2022-11-19T16:28:32.539Z,53.97
2022-11-19T16:31:05.057Z,50.17
2022-11-19T16:33:33.767Z,43.57
2022-11-19T16:36:16.708Z,47.60
2022-11-19T16:38:48.866Z,56.15
2022-11-19T16:41:35.607Z,47.30
2022-11-19T16:44:09.753Z,41.33
2022-11-19T16:46:36.970Z,43.30
2022-11-19T16:49:05.483Z,37.17
2022-11-19T16:51:33.119Z,25.60
2022-11-19T16:54:00.435Z,57.25
2022-11-19T16:56:39.632Z,42.88
2022-11-19T16:59:07.247Z,33.07
2022-11-19T17:01:34.192Z,34.08
2022-11-19T17:04:07.503Z,26.88
2022-11-19T17:06:37.769Z,45.80
2022-11-19T17:09:06.961Z,55.58
2022-11-19T17:12:04.442Z,44.83
2022-11-19T17:14:31.583Z,54.33
2022-11-19T17:16:58.531Z,55.78
2022-11-19T17:19:33.976Z,30.50
2022-11-19T17:22:04.085Z,59.95
2022-11-19T17:24:41.188Z,48.30
2022-11-19T17:27:23.427Z,36.03
2022-11-19T17:29:55.412Z,56.50
2022-11-19T17:32:22.726Z,49.78
2022-11-19T17:34:55.159Z,33.17
2022-11-19T17:37:22.383Z,41.93
2022-11-19T17:39:49.486Z,51.67
2022-11-19T17:42:35.278Z,53.33
2022-11-19T17:45:06.067Z,50.15
2022-11-19T17:47:36.133Z,54.55
2022-11-19T17:50:03.096Z,53.27
2022-11-19T17:52:31.341Z,51.65
2022-11-19T17:55:19.700Z,52.72
2022-11-19T17:57:46.488Z,43.17
2022-11-19T18:00:13.974Z,44.72
2022-11-19T18:02:40.692Z,49.50
2022-11-19T18:05:18.692Z,32.88
2022-11-19T18:07:46.356Z,54.13
2022-11-19T18:10:13.433Z,43.75
2022-11-19T18:12:40.176Z,37.35
2022-11-19T18:15:07.283Z,24.40
2022-11-19T18:17:34.075Z,42.75
2022-11-19T18:20:00.766Z,44.40
2022-11-19T18:22:27.560Z,29.02
2022-11-19T18:24:54.393Z,50.38
2022-11-19T18:27:21.113Z,51.03
2022-11-19T18:29:47.838Z,51.17
2022-11-19T18:32:16.878Z,30.90
2022-11-19T18:34:45.119Z,37.63
2022-11-19T18:37:12.292Z,37.40
2022-11-19T18:39:39.087Z,41.40
2022-11-19T18:42:05.863Z,31.45
2022-11-19T18:44:35.737Z,53.75
2022-11-19T18:47:08.487Z,40.35
2022-11-19T18:49:36.926Z,41.50
2022-11-19T18:52:06.010Z,28.37
2022-11-19T18:54:32.871Z,43.72
2022-11-19T18:56:59.627Z,53.70
2022-11-19T18:59:26.419Z,45.70
2022-11-19T19:01:55.761Z,41.47
2022-11-19T19:04:23.118Z,49.43
2022-11-19T19:06:50.310Z,42.15
2022-11-19T19:09:20.824Z,47.35
2022-11-19T19:12:12.547Z,36.53
2022-11-19T19:14:40.091Z,35.15
2022-11-19T19:17:06.940Z,27.70
2022-11-19T19:19:33.772Z,24.02
2022-11-19T19:22:00.770Z,48.67
2022-11-19T19:24:27.635Z,44.42
2022-11-19T19:26:54.354Z,34.60
2022-11-19T19:29:21.522Z,47.07
2022-11-19T19:31:48.602Z,52.45
2022-11-19T19:34:15.562Z,49.47
2022-11-19T19:36:47.668Z,52.60
2022-11-19T19:39:18.841Z,63.47
2022-11-19T19:41:46.095Z,42.80
2022-11-19T19:44:12.863Z,52.97
2022-11-19T19:46:39.567Z,51.80
2022-11-19T19:49:06.426Z,49.13
2022-11-19T19:51:33.251Z,47.38
2022-11-19T19:54:00.551Z,54.67
2022-11-19T19:56:30.434Z,56.42
2022-11-19T19:58:58.400Z,54.25
2022-11-19T20:01:29.974Z,59.03
2022-11-19T20:04:09.105Z,57.97
2022-11-19T20:06:38.451Z,52.43
2022-11-19T20:09:09.202Z,36.92
2022-11-19T20:11:48.811Z,48.13
2022-11-19T20:14:16.293Z,55.35
2022-11-19T20:16:43.011Z,58.28
2022-11-19T20:19:14.492Z,53.80
2022-11-19T20:21:41.247Z,54.63
2022-11-19T20:24:12.099Z,48.97
2022-11-19T20:26:41.009Z,36.38
2022-11-19T20:29:10.991Z,56.38
2022-11-19T20:31:39.523Z,30.03
2022-11-19T20:34:06.886Z,52.47
2022-11-19T20:36:35.295Z,39.15
2022-11-19T20:39:02.380Z,53.55
2022-11-19T20:41:47.919Z,55.72
2022-11-19T20:44:23.287Z,38.23
2022-11-19T20:47:02.036Z,58.80
2022-11-19T20:49:33.916Z,62.70
2022-11-19T20:52:01.223Z,55.65
2022-11-19T20:54:28.286Z,54.28
2022-11-19T20:56:56.487Z,63.17
2022-11-19T20:59:24.147Z,54.70
2022-11-19T21:01:52.441Z,40.92
2022-11-19T21:04:20.557Z,64.00
2022-11-19T21:06:47.788Z,52.85
2022-11-19T21:09:15.896Z,65.03
2022-11-19T21:11:43.531Z,65.32
2022-11-19T21:14:10.251Z,46.63
2022-11-19T21:16:37.131Z,57.08
2022-11-19T21:19:04.589Z,59.25
2022-11-19T21:21:31.447Z,63.63
2022-11-19T21:23:58.317Z,63.45
2022-11-19T21:26:27.267Z,59.17
2022-11-19T21:28:56.522Z,62.10
2022-11-19T21:31:48.473Z,53.55
2022-11-19T21:34:20.728Z,64.73
2022-11-19T21:36:48.451Z,60.65
2022-11-19T21:39:19.260Z,59.28
2022-11-19T21:41:46.518Z,58.28
2022-11-19T21:44:16.724Z,61.30
2022-11-19T21:46:46.464Z,33.17
2022-11-19T21:49:13.227Z,59.80
2022-11-19T21:51:40.063Z,36.47
2022-11-19T21:54:06.866Z,58.75
2022-11-19T21:56:38.273Z,59.53
2022-11-19T21:59:07.013Z,69.77
2022-11-19T22:01:34.379Z,22.60
2022-11-19T22:04:01.216Z,61.88
2022-11-19T22:06:28.035Z,61.15
2022-11-19T22:08:55.447Z,60.17
2022-11-19T22:11:31.721Z,58.40
2022-11-19T22:14:02.171Z,58.92
2022-11-19T22:16:29.976Z,60.72
2022-11-19T22:18:56.722Z,61.72
2022-11-19T22:21:23.559Z,58.78
2022-11-19T22:23:52.608Z,56.67
2022-11-19T22:26:19.464Z,59.30
2022-11-19T22:28:46.248Z,60.55
2022-11-19T22:31:14.270Z,65.88
2022-11-19T22:33:41.751Z,57.08
2022-11-19T22:36:10.544Z,64.60
2022-11-19T22:38:39.036Z,52.60
2022-11-19T22:41:09.224Z,47.08
2022-11-19T22:43:37.299Z,54.53
2022-11-19T22:46:04.701Z,38.28
2022-11-19T22:48:32.670Z,61.13
2022-11-19T22:50:59.672Z,51.40
2022-11-19T22:53:26.511Z,55.28
2022-11-19T22:55:53.287Z,53.17
2022-11-19T22:58:20.091Z,61.58
2022-11-19T23:00:48.882Z,57.87
2022-11-19T23:03:16.122Z,43.70
2022-11-19T23:05:49.252Z,56.55
2022-11-19T23:08:16.131Z,63.63
2022-11-19T23:10:43.009Z,38.03
2022-11-19T23:13:31.481Z,58.33
2022-11-19T23:16:07.189Z,61.70
2022-11-19T23:18:37.162Z,51.90
2022-11-19T23:21:07.249Z,50.63
2022-11-19T23:23:34.276Z,61.90
2022-11-19T23:26:02.881Z,57.10
2022-11-19T23:28:31.248Z,52.17
2022-11-19T23:31:05.084Z,55.00
2022-11-19T23:33:32.033Z,52.90
2022-11-19T23:36:22.243Z,56.58
2022-11-19T23:38:49.701Z,62.07
2022-11-19T23:41:18.189Z,54.50
2022-11-19T23:43:45.673Z,58.97
2022-11-19T23:46:18.426Z,57.58
2022-11-19T23:48:47.053Z,67.45
2022-11-19T23:51:15.368Z,64.37
2022-11-19T23:53:42.969Z,24.75
2022-11-19T23:56:11.157Z,72.90
2022-11-19T23:58:37.961Z,67.20
